GMMX/RAK METAR and TAF weather

Enter ICAO airport designator
Station Type Date Time Source
GMMX METAR 2020/01/22 21:00 UTC NOAA

GMMX 222100Z 27004KT 240V300 8000 -RA SCT010 11/08 Q1017 NOSIG


Station Type Date Time Source
GMMX Decoded METAR 2020/01/22 21:00 UTC NOAA

Marrakech, Morocco (GMMX) 31-37N 008-02W 466M
Jan 22, 2020 - 04:00 PM EST / 2020.01.22 2100 UTC
Wind: from the W (270 degrees) at 5 MPH (4 KT) (direction variable):0
Visibility: 4 mile(s):0
Sky conditions: partly cloudy
Weather: light rain
Temperature: 51 F (11 C)
Dew Point: 46 F (8 C)
Relative Humidity: 81%
Pressure (altimeter): 30.03 in. Hg (1017 hPa)
ob: GMMX 222100Z 27004KT 240V300 8000 -RA SCT010 11/08 Q1017 NOSIG
cycle: 21

Station Type Date Time Source
GMMX TAF 2020/01/22 18:30 UTC NOAA

TAF TAF GMMX 221700Z 2218/2324 26007KT 8000 SCT023 SCT100 PROB30
TEMPO 2220/2223 5000 RA BKN020 PROB40
TEMPO 2303/2309 4000 BR BKN010

Example: see airport list